createdAt,value
2019-01-24T02:00:51.164Z,92353.64
2019-01-24T02:15:51.086Z,92370.38
2019-01-24T02:30:51.029Z,92382.75
2019-01-24T02:45:51.011Z,92368.62
2019-01-24T03:00:51.008Z,92381.06
2019-01-24T03:15:52.952Z,92375.00
2019-01-24T03:30:51.253Z,92352.08
2019-01-24T03:45:51.220Z,92317.53
2019-01-24T04:00:51.173Z,92324.09
2019-01-24T04:15:51.093Z,92302.75
2019-01-24T04:30:51.197Z,92315.70
2019-01-24T04:45:50.959Z,92321.58
2019-01-24T05:00:51.448Z,92352.41
2019-01-24T05:15:51.415Z,92361.93
2019-01-24T05:30:51.389Z,92365.56
2019-01-24T05:45:50.625Z,92378.56
2019-01-24T06:00:51.087Z,92370.74
2019-01-24T06:15:50.483Z,92382.05
2019-01-24T06:30:50.395Z,92400.55
2019-01-24T06:45:50.836Z,92398.52
2019-01-24T07:00:50.812Z,92408.41
2019-01-24T07:15:50.795Z,92424.13
2019-01-24T07:30:50.691Z,92438.48
2019-01-24T07:45:51.056Z,92441.55
2019-01-24T08:00:50.896Z,92440.42
2019-01-24T08:15:50.811Z,92462.67
2019-01-24T08:30:50.730Z,92464.96
2019-01-24T08:45:50.272Z,92493.56
2019-01-24T09:00:51.601Z,92525.59
2019-01-24T09:15:50.744Z,92521.38
2019-01-24T09:30:50.756Z,92539.84
2019-01-24T09:45:51.190Z,92535.59
2019-01-24T10:00:51.256Z,92523.69
2019-01-24T10:15:51.328Z,92511.88
2019-01-24T10:30:51.677Z,92505.64
2019-01-24T10:45:51.651Z,92501.56
2019-01-24T11:00:52.954Z,92499.36
2019-01-24T11:15:51.203Z,92515.95
2019-01-24T11:30:50.987Z,92522.79
2019-01-24T11:45:50.736Z,92534.45
2019-01-24T12:00:53.868Z,92547.00
2019-01-24T12:15:51.568Z,92557.19
2019-01-24T12:30:52.476Z,92559.73
2019-01-24T12:45:50.827Z,92579.88
2019-01-24T13:00:50.756Z,92619.66
2019-01-24T13:15:50.728Z,92634.05
2019-01-24T13:30:52.235Z,92656.43
2019-01-24T13:45:51.106Z,92677.47
2019-01-24T14:00:50.946Z,92698.46
2019-01-24T14:15:50.844Z,92713.77
2019-01-24T14:30:51.164Z,92743.42
2019-01-24T14:45:51.339Z,92747.61
2019-01-24T15:00:55.604Z,92757.00
2019-01-24T15:15:56.976Z,92768.19
2019-01-24T15:30:51.007Z,92794.89
2019-01-24T15:45:51.452Z,92807.64
2019-01-24T16:00:52.369Z,92835.66
2019-01-24T16:15:52.028Z,92862.48
2019-01-24T16:30:50.869Z,92890.47
2019-01-24T16:45:51.772Z,92904.03
2019-01-24T17:00:57.628Z,92927.80
2019-01-24T17:15:51.508Z,92950.75
2019-01-24T17:30:53.356Z,92962.66
2019-01-24T17:45:51.979Z,92972.39
2019-01-24T18:00:53.226Z,92996.01
2019-01-24T18:15:51.191Z,93003.21
2019-01-24T18:30:52.040Z,93033.87
2019-01-24T18:45:59.266Z,93047.29
2019-01-24T19:00:51.148Z,93041.22
2019-01-24T19:15:51.243Z,93063.68
2019-01-24T19:30:53.012Z,93060.16
2019-01-24T19:45:53.984Z,93069.61
2019-01-24T20:00:52.307Z,93090.97
2019-01-24T20:15:51.570Z,93092.62
2019-01-24T20:30:52.825Z,93128.74
2019-01-24T20:45:51.560Z,93136.30
2019-01-24T21:00:52.055Z,93159.89
2019-01-24T21:15:53.550Z,93193.66
2019-01-24T21:30:51.570Z,93214.34
2019-01-24T21:45:50.944Z,93231.47
2019-01-24T22:00:51.919Z,93239.94
2019-01-24T22:15:51.876Z,93234.48
2019-01-24T22:30:59.936Z,93223.34
2019-01-24T22:45:50.883Z,93208.65
2019-01-24T23:15:50.716Z,93234.11
2019-01-24T23:30:51.673Z,93231.70
2019-01-24T23:45:53.857Z,93254.87
